createdAt,value
2022-11-15T00:04:30.698Z,60.5
2022-11-15T00:09:37.080Z,60.5
2022-11-15T00:24:56.684Z,60.5
2022-11-15T00:30:03.088Z,60.5
2022-11-15T00:35:09.813Z,60.5
2022-11-15T00:40:16.915Z,60.5
2022-11-15T00:50:30.816Z,60.5
2022-11-15T01:00:44.089Z,60.5
2022-11-15T01:05:50.684Z,60.5
2022-11-15T01:16:04.154Z,60.5
2022-11-15T01:21:11.068Z,60.5
2022-11-15T01:26:18.079Z,60.5
2022-11-15T01:31:24.950Z,60.5
2022-11-15T01:41:38.859Z,60.5
2022-11-15T01:46:45.863Z,60.5
2022-11-15T01:51:52.824Z,60.5
2022-11-15T02:12:20.952Z,60.5
2022-11-15T02:17:28.132Z,60.5
2022-11-15T02:22:35.032Z,60.5
2022-11-15T02:32:49.127Z,60
2022-11-15T02:37:56.045Z,60
2022-11-15T02:43:03.202Z,60
2022-11-15T02:48:10.129Z,60
2022-11-15T02:53:17.111Z,60
2022-11-15T02:58:24.111Z,60
2022-11-15T03:18:52.371Z,60
2022-11-15T03:23:59.908Z,60
2022-11-15T03:29:07.965Z,60
2022-11-15T03:34:16.038Z,60
2022-11-15T03:39:24.050Z,60
2022-11-15T03:44:32.029Z,60
2022-11-15T03:49:39.747Z,60
2022-11-15T03:54:47.736Z,60
2022-11-15T03:59:55.837Z,60
2022-11-15T04:10:11.879Z,60
2022-11-15T04:15:19.758Z,60.5
2022-11-15T04:20:27.724Z,60
2022-11-15T04:30:44.999Z,60.5
2022-11-15T04:41:02.905Z,60.5
2022-11-15T04:51:21.089Z,60.5
2022-11-15T04:56:30.153Z,60.5
2022-11-15T05:01:38.915Z,60.5
2022-11-15T05:06:45.835Z,60.5
2022-11-15T05:11:51.827Z,60.5
2022-11-15T05:16:58.819Z,60.5
2022-11-15T05:22:04.536Z,60.5
2022-11-15T05:27:09.854Z,60.5
2022-11-15T05:32:16.547Z,60.5
2022-11-15T05:37:22.858Z,60.5
2022-11-15T05:42:29.574Z,60.5
2022-11-15T05:47:35.888Z,60.5
2022-11-15T05:52:42.568Z,60.5
2022-11-15T05:57:48.953Z,60.5
2022-11-15T06:02:55.793Z,60.5
2022-11-15T06:08:02.751Z,59.5
2022-11-15T06:13:09.829Z,58.5
2022-11-15T06:18:16.673Z,57.5
2022-11-15T06:23:23.024Z,56.5
2022-11-15T06:28:29.613Z,55.5
2022-11-15T06:33:35.978Z,55
2022-11-15T06:38:41.673Z,54.5
2022-11-15T06:43:48.811Z,54.5
2022-11-15T06:48:55.840Z,54
2022-11-15T06:54:02.827Z,54
2022-11-15T06:59:09.000Z,53.5
2022-11-15T07:04:15.613Z,53.5
2022-11-15T07:09:20.894Z,53.5
2022-11-15T07:14:26.647Z,54
2022-11-15T07:19:31.903Z,53
2022-11-15T07:24:37.584Z,52
2022-11-15T07:29:43.862Z,51.5
2022-11-15T07:34:50.565Z,50.5
2022-11-15T07:39:56.892Z,49.5
2022-11-15T07:45:03.642Z,48.5
2022-11-15T07:50:10.059Z,48.5
2022-11-15T07:55:16.577Z,48
2022-11-15T08:00:22.866Z,48
2022-11-15T08:05:29.547Z,48.5
2022-11-15T08:10:35.841Z,48
2022-11-15T08:15:42.558Z,48.5
2022-11-15T08:20:48.924Z,48.5
2022-11-15T08:25:55.555Z,49
2022-11-15T08:31:00.905Z,49
2022-11-15T08:36:07.559Z,49.5
2022-11-15T08:41:13.914Z,49.5
2022-11-15T08:46:20.645Z,50
2022-11-15T08:51:26.874Z,50
2022-11-15T08:56:33.695Z,50.5
2022-11-15T09:01:39.968Z,50.5
2022-11-15T09:06:45.695Z,50.5
2022-11-15T09:11:51.949Z,50.5
2022-11-15T09:16:57.702Z,50
2022-11-15T09:22:03.967Z,50
2022-11-15T09:27:10.749Z,49.5
2022-11-15T09:32:16.090Z,49
2022-11-15T09:37:22.731Z,48.5
2022-11-15T09:42:28.915Z,48.5
2022-11-15T09:47:35.797Z,48.5
2022-11-15T09:52:42.032Z,48.5
2022-11-15T09:57:48.709Z,48
2022-11-15T10:02:55.078Z,48
2022-11-15T10:08:01.646Z,48
2022-11-15T10:13:08.047Z,48.5
2022-11-15T10:18:14.679Z,48.5
2022-11-15T10:23:20.896Z,48.5
2022-11-15T10:28:27.876Z,48.5
2022-11-15T10:33:34.979Z,49
2022-11-15T10:38:40.772Z,49
2022-11-15T10:43:47.669Z,49
2022-11-15T10:48:54.653Z,49.5
2022-11-15T10:54:00.968Z,49.5
2022-11-15T10:59:07.733Z,49.5
2022-11-15T11:04:13.976Z,49.5
2022-11-15T11:09:19.729Z,49.5
2022-11-15T11:14:25.956Z,49.5
2022-11-15T11:19:31.695Z,49.5
2022-11-15T11:24:38.083Z,50
2022-11-15T11:29:44.832Z,49.5
2022-11-15T11:34:51.274Z,49.5
2022-11-15T11:39:57.847Z,50
2022-11-15T11:45:04.644Z,51.5
2022-11-15T11:50:11.020Z,53.5
2022-11-15T11:55:17.611Z,54
2022-11-15T12:00:23.885Z,54.5
2022-11-15T12:05:30.641Z,54.5
2022-11-15T12:10:37.150Z,54
2022-11-15T12:15:43.917Z,54
2022-11-15T12:20:50.492Z,54
2022-11-15T12:25:55.891Z,54
2022-11-15T12:31:02.077Z,53.5
2022-11-15T12:36:08.687Z,53.5
2022-11-15T12:41:15.006Z,53.5
2022-11-15T12:46:21.695Z,53.5
2022-11-15T12:51:28.367Z,53.5
2022-11-15T12:56:34.809Z,53
2022-11-15T13:01:40.679Z,53
2022-11-15T13:06:47.556Z,53
2022-11-15T13:11:52.899Z,53
2022-11-15T13:16:58.582Z,52.5
2022-11-15T13:22:04.886Z,52.5
2022-11-15T13:27:11.801Z,53.5
2022-11-15T13:32:17.897Z,53.5
2022-11-15T13:37:24.559Z,53.5
2022-11-15T13:42:30.889Z,53.5
2022-11-15T13:47:37.557Z,54.5
2022-11-15T13:52:43.867Z,54.5
2022-11-15T13:57:50.527Z,54.5
2022-11-15T14:02:56.933Z,54
2022-11-15T14:08:03.556Z,54
2022-11-15T14:13:09.855Z,54
2022-11-15T14:18:16.775Z,54
2022-11-15T14:23:21.871Z,54
2022-11-15T14:28:28.552Z,55
2022-11-15T14:33:34.896Z,55.5
2022-11-15T14:38:41.555Z,56.5
2022-11-15T14:43:47.935Z,57
2022-11-15T14:48:54.693Z,57.5
2022-11-15T14:54:00.867Z,57.5
2022-11-15T14:59:07.563Z,58
2022-11-15T15:04:13.866Z,58
2022-11-15T15:09:19.542Z,58.5
2022-11-15T15:14:24.895Z,58.5
2022-11-15T15:19:30.553Z,59
2022-11-15T15:24:36.007Z,59
2022-11-15T15:29:41.630Z,60
2022-11-15T15:34:46.901Z,57
2022-11-15T15:50:06.594Z,61.5
2022-11-15T15:55:12.846Z,61
2022-11-15T16:00:19.576Z,61
2022-11-15T16:05:25.997Z,61.5
2022-11-15T16:10:32.597Z,62
2022-11-15T16:15:38.899Z,62
2022-11-15T16:20:45.636Z,62.5
2022-11-15T16:25:51.919Z,62.5
2022-11-15T16:30:58.584Z,62.5
2022-11-15T16:36:04.960Z,63
2022-11-15T16:41:11.722Z,63
2022-11-15T16:46:17.889Z,63
2022-11-15T16:51:24.602Z,63
2022-11-15T16:56:30.843Z,63
2022-11-15T17:01:37.601Z,63
2022-11-15T17:06:43.975Z,63.5
2022-11-15T17:11:50.584Z,63.5
2022-11-15T17:16:56.899Z,63.5
2022-11-15T17:22:03.588Z,63.5
2022-11-15T17:27:09.879Z,63.5
2022-11-15T17:32:16.552Z,63.5
2022-11-15T17:37:22.961Z,63.5
2022-11-15T17:42:29.558Z,64
2022-11-15T17:47:35.917Z,64
2022-11-15T17:52:42.582Z,64
2022-11-15T17:57:48.916Z,64
2022-11-15T18:02:55.572Z,64
2022-11-15T18:23:21.715Z,70
2022-11-15T18:28:26.895Z,72
2022-11-15T18:33:33.553Z,61.5
2022-11-15T18:38:39.086Z,56.5
2022-11-15T18:43:45.743Z,54.5
2022-11-15T18:48:51.122Z,53
2022-11-15T18:53:57.737Z,52.5
2022-11-15T18:59:04.064Z,52.5
2022-11-15T19:04:10.747Z,52.5
2022-11-15T19:09:17.161Z,52.5
2022-11-15T19:14:23.552Z,52.5
2022-11-15T19:19:30.088Z,52.5
2022-11-15T19:24:36.741Z,53
2022-11-15T19:29:43.039Z,53
2022-11-15T19:34:48.724Z,53.5
2022-11-15T19:39:54.103Z,54.5
2022-11-15T19:45:00.683Z,55.5
2022-11-15T19:50:06.885Z,56
2022-11-15T19:55:13.814Z,56.5
2022-11-15T20:00:19.878Z,56
2022-11-15T20:05:26.703Z,56
2022-11-15T20:10:32.865Z,56
2022-11-15T20:15:39.601Z,55.5
2022-11-15T20:20:46.075Z,55.5
2022-11-15T20:25:52.921Z,55.5
2022-11-15T20:31:00.002Z,55
2022-11-15T20:36:06.435Z,55
2022-11-15T20:41:12.710Z,55
2022-11-15T20:46:18.275Z,55
2022-11-15T20:51:24.925Z,54.5
2022-11-15T20:56:31.290Z,54.5
2022-11-15T21:01:37.782Z,54.5
2022-11-15T21:06:44.700Z,54
2022-11-15T21:11:51.028Z,54.5
2022-11-15T21:16:57.587Z,55
2022-11-15T21:22:04.202Z,55.5
2022-11-15T21:27:09.951Z,56
2022-11-15T21:32:16.921Z,56.5
2022-11-15T21:37:22.339Z,57
2022-11-15T21:42:28.559Z,57
2022-11-15T21:47:33.878Z,57.5
2022-11-15T21:52:39.742Z,57.5
2022-11-15T21:57:46.059Z,58
2022-11-15T22:02:52.729Z,58
2022-11-15T22:07:59.158Z,58.5
2022-11-15T22:13:05.819Z,58.5
2022-11-15T22:18:12.911Z,58.5
2022-11-15T22:33:32.042Z,59
2022-11-15T22:38:38.822Z,59
2022-11-15T22:43:44.993Z,59
2022-11-15T22:48:51.802Z,59.5
2022-11-15T22:59:05.002Z,59.5
2022-11-15T23:09:17.926Z,60
2022-11-15T23:14:24.618Z,60
2022-11-15T23:29:43.920Z,61
2022-11-15T23:34:50.607Z,61.5
2022-11-15T23:50:10.110Z,62
